»·PEaware :: QXE103 KJAC-KBOI

QXE103 :: KJAC-KBOI

FLIGHT INFORMATION

Flight Status: Arrived
Operator:
Horizon Air
More flights by this operator :: More flights under this callsign
Pilot: Andrew C. (28419)
Aircraft: CANADAIR CL-600 CRJ-700
(CRJ7)
More flights by this aircraft type
Origin: KJAC Jackson Hole
United States
Destination: KBOI Boise Air Terminal/Gowen
United States
More flights between these airports :: More routes between these airports
Route: +ALPIN2 KICNE
File this flight plan on PilotEdge
Remarks:
Altitude:
(Current/Filed)
36,000ft
Speed:
(Current/Filed)
330kts
Departed: 29-Mar-20 04:14 PM
Arrived: 29-Mar-20 05:01 PM
Distance/Time
Traveled:
238nm/0:46
Distance/Time
To Go:
Arrived

Flight Plot

Page will automatically refresh every two minutes.


Map Options




Map Legend


Flown Route
Filed Route
Departure Airport
Arrival Airport
Navaid (VOR, NDB)
Fix

Horizontal Profiles

Position Reports

Time Latitude Longitude Heading Altitude Ground
Speed
29-Mar-20 15:59 43.603865 -110.736347 109 6458ft 0kts
29-Mar-20 16:00 43.603865 -110.736347 109 6458ft 0kts
29-Mar-20 16:01 43.603865 -110.736347 109 6458ft 0kts
29-Mar-20 16:02 43.603865 -110.736347 109 6458ft 0kts
29-Mar-20 16:03 43.603865 -110.736347 109 6458ft 0kts
29-Mar-20 16:04 43.603865 -110.736347 109 6458ft 0kts
29-Mar-20 16:05 43.603865 -110.736347 109 6458ft 0kts
29-Mar-20 16:06 43.603865 -110.736346 109 6458ft 0kts
29-Mar-20 16:07 43.603865 -110.736346 109 6458ft 0kts
29-Mar-20 16:08 43.603865 -110.736346 109 6458ft 0kts
29-Mar-20 16:09 43.603971 -110.736440 61 6458ft 9kts
29-Mar-20 16:10 43.605326 -110.736936 14 6458ft 14kts
29-Mar-20 16:11 43.610793 -110.734343 19 6458ft 25kts
29-Mar-20 16:12 43.615266 -110.733538 286 6458ft 5kts
29-Mar-20 16:13 43.606777 -110.738000 199 6458ft 139kts
29-Mar-20 16:14 43.558828 -110.767287 207 9043ft 205kts
29-Mar-20 16:15 43.506136 -110.801918 207 11424ft 247kts
29-Mar-20 16:16 43.432282 -110.849740 206 12836ft 318kts
29-Mar-20 16:17 43.349634 -110.903396 206 15295ft 339kts
29-Mar-20 16:18 43.262035 -110.959834 206 17829ft 354kts
29-Mar-20 16:19 43.216845 -111.069949 272 20099ft 361kts
29-Mar-20 16:20 43.231491 -111.208734 280 22344ft 373kts
29-Mar-20 16:21 43.251331 -111.350389 280 24465ft 385kts
29-Mar-20 16:22 43.267597 -111.497991 275 26396ft 396kts
29-Mar-20 16:23 43.280882 -111.649994 276 28251ft 402kts
29-Mar-20 16:24 43.294589 -111.798557 275 30322ft 392kts
29-Mar-20 16:25 43.307769 -111.946947 275 31843ft 392kts
29-Mar-20 16:26 43.320738 -112.094944 275 33211ft 390kts
29-Mar-20 16:27 43.333394 -112.242090 275 34496ft 388kts
29-Mar-20 16:28 43.346000 -112.389762 274 35768ft 386kts
29-Mar-20 16:29 43.358704 -112.540499 274 36038ft 404kts
29-Mar-20 16:30 43.371327 -112.694812 274 36036ft 409kts
29-Mar-20 16:31 43.383936 -112.851016 274 36035ft 414kts
29-Mar-20 16:32 43.396524 -113.009694 274 36033ft 421kts
29-Mar-20 16:33 43.408638 -113.170910 269 36027ft 422kts
29-Mar-20 16:34 43.374768 -113.323889 250 36030ft 422kts
29-Mar-20 16:35 43.375970 -113.484654 277 36029ft 428kts
29-Mar-20 16:36 43.384710 -113.647385 270 36024ft 430kts
29-Mar-20 16:37 43.392864 -113.805377 272 35777ft 387kts
29-Mar-20 16:38 43.399811 -113.953096 272 33464ft 391kts
29-Mar-20 16:39 43.406894 -114.101521 272 31079ft 391kts
29-Mar-20 16:40 43.413583 -114.247420 271 29022ft 376kts
29-Mar-20 16:41 43.420081 -114.392887 271 26034ft 380kts
29-Mar-20 16:42 43.426418 -114.535930 271 23635ft 370kts
29-Mar-20 16:43 43.432305 -114.675148 271 21533ft 359kts
29-Mar-20 16:44 43.437757 -114.810744 271 19662ft 348kts
29-Mar-20 16:45 43.443056 -114.942475 271 18049ft 341kts
29-Mar-20 16:46 43.447939 -115.071384 271 16643ft 333kts
29-Mar-20 16:47 43.452911 -115.197588 270 15324ft 327kts
29-Mar-20 16:48 43.456958 -115.313053 270 15011ft 280kts
29-Mar-20 16:49 43.460833 -115.417096 269 14110ft 265kts
29-Mar-20 16:50 43.464098 -115.516994 268 12657ft 256kts
29-Mar-20 16:51 43.467240 -115.610094 268 10889ft 259kts
29-Mar-20 16:52 43.470834 -115.712272 270 9055ft 255kts
29-Mar-20 16:53 43.473674 -115.805170 270 7843ft 228kts
29-Mar-20 16:54 43.476460 -115.892703 270 6513ft 221kts
29-Mar-20 16:55 43.480029 -115.973988 281 6366ft 208kts
29-Mar-20 16:56 43.505601 -116.044768 293 5590ft 189kts
29-Mar-20 16:57 43.524664 -116.103387 292 4777ft 157kts
29-Mar-20 16:58 43.542357 -116.155621 295 3733ft 143kts
29-Mar-20 16:59 43.558712 -116.203309 295 2911ft 122kts
29-Mar-20 17:00 43.566120 -116.223370 13 2878ft 0kts
29-Mar-20 17:01 43.567511 -116.222872 11 2878ft 0kts
29-Mar-20 17:02 43.567511 -116.222872 11 2878ft 0kts
29-Mar-20 17:03 43.567511 -116.222872 11 2878ft 0kts

Navigation Log

Ident Type
Flight plan parsing failed, navigation log unavailable